sensor_id;sensor_type;location;lat;lon;timestamp;temperature;humidity
11142;DHT22;5625;50.122;19.864;2023-08-30T00:00:37;20.90;99.90
11142;DHT22;5625;50.122;19.864;2023-08-30T00:03:05;20.90;99.90
11142;DHT22;5625;50.122;19.864;2023-08-30T00:05:33;20.90;99.90
11142;DHT22;5625;50.122;19.864;2023-08-30T00:08:02;20.90;99.90
11142;DHT22;5625;50.122;19.864;2023-08-30T00:10:31;20.90;99.90
11142;DHT22;5625;50.122;19.864;2023-08-30T00:12:59;20.80;99.90
11142;DHT22;5625;50.122;19.864;2023-08-30T00:15:27;20.80;99.90
11142;DHT22;5625;50.122;19.864;2023-08-30T00:17:56;20.80;99.90
11142;DHT22;5625;50.122;19.864;2023-08-30T00:20:24;20.80;99.90
11142;DHT22;5625;50.122;19.864;2023-08-30T00:22:52;20.80;99.90
11142;DHT22;5625;50.122;19.864;2023-08-30T00:25:20;20.80;99.90
11142;DHT22;5625;50.122;19.864;2023-08-30T00:27:50;20.80;99.90
11142;DHT22;5625;50.122;19.864;2023-08-30T00:30:18;20.80;99.90
11142;DHT22;5625;50.122;19.864;2023-08-30T00:32:46;20.70;99.90
11142;DHT22;5625;50.122;19.864;2023-08-30T00:35:14;20.70;99.90
11142;DHT22;5625;50.122;19.864;2023-08-30T00:37:43;20.70;99.90
11142;DHT22;5625;50.122;19.864;2023-08-30T00:40:11;20.70;99.90
11142;DHT22;5625;50.122;19.864;2023-08-30T00:42:39;20.70;99.90
11142;DHT22;5625;50.122;19.864;2023-08-30T00:45:10;20.70;99.90
11142;DHT22;5625;50.122;19.864;2023-08-30T00:47:38;20.70;99.90
11142;DHT22;5625;50.122;19.864;2023-08-30T00:50:07;20.70;99.90
11142;DHT22;5625;50.122;19.864;2023-08-30T00:52:36;20.70;99.90
11142;DHT22;5625;50.122;19.864;2023-08-30T00:55:04;20.70;99.90
11142;DHT22;5625;50.122;19.864;2023-08-30T00:57:34;20.60;99.90
11142;DHT22;5625;50.122;19.864;2023-08-30T01:00:08;20.70;99.90
11142;DHT22;5625;50.122;19.864;2023-08-30T01:02:38;20.60;99.90
11142;DHT22;5625;50.122;19.864;2023-08-30T01:05:08;20.60;99.90
11142;DHT22;5625;50.122;19.864;2023-08-30T01:07:37;20.60;99.90
11142;DHT22;5625;50.122;19.864;2023-08-30T01:10:06;20.60;99.90
11142;DHT22;5625;50.122;19.864;2023-08-30T01:12:43;20.50;99.90
11142;DHT22;5625;50.122;19.864;2023-08-30T01:15:15;20.50;99.90
11142;DHT22;5625;50.122;19.864;2023-08-30T01:17:48;20.50;99.90
11142;DHT22;5625;50.122;19.864;2023-08-30T01:20:17;20.50;99.90
11142;DHT22;5625;50.122;19.864;2023-08-30T01:22:55;20.50;99.90
11142;DHT22;5625;50.122;19.864;2023-08-30T01:25:33;20.50;99.90
11142;DHT22;5625;50.122;19.864;2023-08-30T01:28:06;20.50;99.90
11142;DHT22;5625;50.122;19.864;2023-08-30T01:30:39;20.40;99.90
11142;DHT22;5625;50.122;19.864;2023-08-30T01:33:08;20.50;99.90
11142;DHT22;5625;50.122;19.864;2023-08-30T01:35:37;20.50;99.90
11142;DHT22;5625;50.122;19.864;2023-08-30T01:38:08;20.40;99.90
11142;DHT22;5625;50.122;19.864;2023-08-30T01:40:40;20.40;99.90
11142;DHT22;5625;50.122;19.864;2023-08-30T01:43:10;20.40;99.90
11142;DHT22;5625;50.122;19.864;2023-08-30T01:45:41;20.40;99.90
11142;DHT22;5625;50.122;19.864;2023-08-30T01:48:13;20.40;99.90
11142;DHT22;5625;50.122;19.864;2023-08-30T01:50:43;20.40;99.90
11142;DHT22;5625;50.122;19.864;2023-08-30T01:53:12;20.40;99.90
11142;DHT22;5625;50.122;19.864;2023-08-30T01:55:42;20.40;99.90
11142;DHT22;5625;50.122;19.864;2023-08-30T01:58:11;20.40;99.90
11142;DHT22;5625;50.122;19.864;2023-08-30T02:00:39;20.30;99.90
11142;DHT22;5625;50.122;19.864;2023-08-30T02:03:09;20.30;99.90
11142;DHT22;5625;50.122;19.864;2023-08-30T02:05:43;20.30;99.90
11142;DHT22;5625;50.122;19.864;2023-08-30T02:08:17;20.30;99.90
11142;DHT22;5625;50.122;19.864;2023-08-30T02:10:52;20.30;99.90
11142;DHT22;5625;50.122;19.864;2023-08-30T02:13:25;20.30;99.90
11142;DHT22;5625;50.122;19.864;2023-08-30T02:15:55;20.20;99.90
11142;DHT22;5625;50.122;19.864;2023-08-30T02:18:25;20.20;99.90
11142;DHT22;5625;50.122;19.864;2023-08-30T02:20:54;20.20;99.90
11142;DHT22;5625;50.122;19.864;2023-08-30T02:23:23;20.20;99.90
11142;DHT22;5625;50.122;19.864;2023-08-30T02:25:54;20.20;99.90
11142;DHT22;5625;50.122;19.864;2023-08-30T02:28:24;20.20;99.90
11142;DHT22;5625;50.122;19.864;2023-08-30T02:30:53;20.10;99.90
11142;DHT22;5625;50.122;19.864;2023-08-30T02:33:21;20.10;99.90
11142;DHT22;5625;50.122;19.864;2023-08-30T02:35:50;20.10;99.90
11142;DHT22;5625;50.122;19.864;2023-08-30T02:38:20;20.10;99.90
11142;DHT22;5625;50.122;19.864;2023-08-30T02:40:48;20.10;99.90
11142;DHT22;5625;50.122;19.864;2023-08-30T02:43:17;20.10;99.90
11142;DHT22;5625;50.122;19.864;2023-08-30T02:45:46;20.10;99.90
11142;DHT22;5625;50.122;19.864;2023-08-30T02:48:14;20.10;99.90
11142;DHT22;5625;50.122;19.864;2023-08-30T02:50:42;20.10;99.90
11142;DHT22;5625;50.122;19.864;2023-08-30T02:53:11;20.10;99.90
11142;DHT22;5625;50.122;19.864;2023-08-30T02:55:39;20.10;99.90
11142;DHT22;5625;50.122;19.864;2023-08-30T02:58:07;20.10;99.90
11142;DHT22;5625;50.122;19.864;2023-08-30T03:00:36;20.10;99.90
11142;DHT22;5625;50.122;19.864;2023-08-30T03:03:05;20.10;99.90
11142;DHT22;5625;50.122;19.864;2023-08-30T03:05:34;20.10;99.90
11142;DHT22;5625;50.122;19.864;2023-08-30T03:08:03;20.10;99.90
11142;DHT22;5625;50.122;19.864;2023-08-30T03:10:31;20.10;99.90
11142;DHT22;5625;50.122;19.864;2023-08-30T03:12:59;20.10;99.90
11142;DHT22;5625;50.122;19.864;2023-08-30T03:15:27;20.10;99.90
11142;DHT22;5625;50.122;19.864;2023-08-30T03:17:59;20.10;99.90
11142;DHT22;5625;50.122;19.864;2023-08-30T03:20:29;20.10;99.90
11142;DHT22;5625;50.122;19.864;2023-08-30T03:22:57;20.10;99.90
11142;DHT22;5625;50.122;19.864;2023-08-30T03:25:28;20.00;99.90
11142;DHT22;5625;50.122;19.864;2023-08-30T03:27:57;20.00;99.90
11142;DHT22;5625;50.122;19.864;2023-08-30T03:30:25;20.00;99.90
11142;DHT22;5625;50.122;19.864;2023-08-30T03:32:53;20.00;99.90
11142;DHT22;5625;50.122;19.864;2023-08-30T03:35:22;20.10;99.90
11142;DHT22;5625;50.122;19.864;2023-08-30T03:37:51;20.10;99.90
11142;DHT22;5625;50.122;19.864;2023-08-30T03:40:19;20.00;99.90
11142;DHT22;5625;50.122;19.864;2023-08-30T03:42:47;20.00;99.90
11142;DHT22;5625;50.122;19.864;2023-08-30T03:45:16;20.00;99.90
11142;DHT22;5625;50.122;19.864;2023-08-30T03:47:44;20.00;99.90
11142;DHT22;5625;50.122;19.864;2023-08-30T03:50:12;20.00;99.90
11142;DHT22;5625;50.122;19.864;2023-08-30T03:52:40;20.00;99.90
11142;DHT22;5625;50.122;19.864;2023-08-30T03:55:10;20.00;99.90
11142;DHT22;5625;50.122;19.864;2023-08-30T03:57:38;19.90;99.90
11142;DHT22;5625;50.122;19.864;2023-08-30T04:00:06;19.90;99.90
11142;DHT22;5625;50.122;19.864;2023-08-30T04:02:35;19.90;99.90
11142;DHT22;5625;50.122;19.864;2023-08-30T04:05:03;19.90;99.90
11142;DHT22;5625;50.122;19.864;2023-08-30T04:07:35;19.90;99.90
11142;DHT22;5625;50.122;19.864;2023-08-30T04:10:04;19.90;99.90
11142;DHT22;5625;50.122;19.864;2023-08-30T04:12:35;19.90;99.90
11142;DHT22;5625;50.122;19.864;2023-08-30T04:15:04;19.90;99.90
11142;DHT22;5625;50.122;19.864;2023-08-30T04:17:32;19.90;99.90
11142;DHT22;5625;50.122;19.864;2023-08-30T04:20:00;19.90;99.90
11142;DHT22;5625;50.122;19.864;2023-08-30T04:22:31;19.90;99.90
11142;DHT22;5625;50.122;19.864;2023-08-30T04:25:02;19.90;99.90
11142;DHT22;5625;50.122;19.864;2023-08-30T04:27:30;19.90;99.90
11142;DHT22;5625;50.122;19.864;2023-08-30T04:29:59;19.90;99.90
11142;DHT22;5625;50.122;19.864;2023-08-30T04:32:27;19.90;99.90
11142;DHT22;5625;50.122;19.864;2023-08-30T04:34:55;19.90;99.90
11142;DHT22;5625;50.122;19.864;2023-08-30T04:37:24;19.90;99.90
11142;DHT22;5625;50.122;19.864;2023-08-30T04:39:52;19.90;99.90
11142;DHT22;5625;50.122;19.864;2023-08-30T04:42:20;19.90;99.90
11142;DHT22;5625;50.122;19.864;2023-08-30T04:44:48;19.90;99.90
11142;DHT22;5625;50.122;19.864;2023-08-30T04:47:18;19.90;99.90
11142;DHT22;5625;50.122;19.864;2023-08-30T04:49:50;19.90;99.90
11142;DHT22;5625;50.122;19.864;2023-08-30T04:52:18;19.90;99.90
11142;DHT22;5625;50.122;19.864;2023-08-30T04:54:46;19.90;99.90
11142;DHT22;5625;50.122;19.864;2023-08-30T04:57:15;19.90;99.90
11142;DHT22;5625;50.122;19.864;2023-08-30T04:59:44;19.90;99.90
11142;DHT22;5625;50.122;19.864;2023-08-30T05:02:12;19.90;99.90
11142;DHT22;5625;50.122;19.864;2023-08-30T05:04:42;19.90;99.90
11142;DHT22;5625;50.122;19.864;2023-08-30T05:07:10;19.90;99.90
11142;DHT22;5625;50.122;19.864;2023-08-30T05:09:38;20.00;99.90
11142;DHT22;5625;50.122;19.864;2023-08-30T05:12:07;20.00;99.90
11142;DHT22;5625;50.122;19.864;2023-08-30T05:14:36;20.00;99.90
11142;DHT22;5625;50.122;19.864;2023-08-30T05:17:04;20.00;99.90
11142;DHT22;5625;50.122;19.864;2023-08-30T05:19:32;20.00;99.90
11142;DHT22;5625;50.122;19.864;2023-08-30T05:22:03;20.10;99.90
11142;DHT22;5625;50.122;19.864;2023-08-30T05:24:31;20.10;99.90
11142;DHT22;5625;50.122;19.864;2023-08-30T05:27:00;20.10;99.90
11142;DHT22;5625;50.122;19.864;2023-08-30T05:29:28;20.10;99.90
11142;DHT22;5625;50.122;19.864;2023-08-30T05:31:56;20.10;99.90
11142;DHT22;5625;50.122;19.864;2023-08-30T05:34:24;20.20;99.90
11142;DHT22;5625;50.122;19.864;2023-08-30T05:36:53;20.20;99.90
11142;DHT22;5625;50.122;19.864;2023-08-30T05:39:23;20.20;99.90
11142;DHT22;5625;50.122;19.864;2023-08-30T05:41:51;20.20;99.90
11142;DHT22;5625;50.122;19.864;2023-08-30T05:44:19;20.20;99.90
11142;DHT22;5625;50.122;19.864;2023-08-30T05:46:47;20.20;99.90
11142;DHT22;5625;50.122;19.864;2023-08-30T05:49:16;20.10;99.90
11142;DHT22;5625;50.122;19.864;2023-08-30T05:51:44;20.10;99.90
11142;DHT22;5625;50.122;19.864;2023-08-30T05:54:12;20.10;99.90
11142;DHT22;5625;50.122;19.864;2023-08-30T05:56:42;20.10;99.90
11142;DHT22;5625;50.122;19.864;2023-08-30T05:59:10;20.10;99.90
11142;DHT22;5625;50.122;19.864;2023-08-30T06:01:39;20.10;99.90
11142;DHT22;5625;50.122;19.864;2023-08-30T06:04:07;20.10;99.90
11142;DHT22;5625;50.122;19.864;2023-08-30T06:06:35;20.10;99.90
11142;DHT22;5625;50.122;19.864;2023-08-30T06:09:03;20.10;99.90
11142;DHT22;5625;50.122;19.864;2023-08-30T06:11:32;20.10;99.90
11142;DHT22;5625;50.122;19.864;2023-08-30T06:14:05;20.10;99.90
11142;DHT22;5625;50.122;19.864;2023-08-30T06:16:33;20.00;99.90
11142;DHT22;5625;50.122;19.864;2023-08-30T06:19:02;20.10;99.90
11142;DHT22;5625;50.122;19.864;2023-08-30T06:21:45;20.10;99.90
11142;DHT22;5625;50.122;19.864;2023-08-30T06:24:13;20.10;99.90
11142;DHT22;5625;50.122;19.864;2023-08-30T06:26:41;20.20;99.90
11142;DHT22;5625;50.122;19.864;2023-08-30T06:29:13;20.20;99.90
11142;DHT22;5625;50.122;19.864;2023-08-30T06:31:41;20.20;99.90
11142;DHT22;5625;50.122;19.864;2023-08-30T06:34:09;20.20;99.90
11142;DHT22;5625;50.122;19.864;2023-08-30T06:36:37;20.20;99.90
11142;DHT22;5625;50.122;19.864;2023-08-30T06:39:05;20.30;99.90
11142;DHT22;5625;50.122;19.864;2023-08-30T06:41:34;20.40;99.90
11142;DHT22;5625;50.122;19.864;2023-08-30T06:44:05;20.40;99.90
11142;DHT22;5625;50.122;19.864;2023-08-30T06:46:35;20.50;99.90
11142;DHT22;5625;50.122;19.864;2023-08-30T06:49:05;20.50;99.90
11142;DHT22;5625;50.122;19.864;2023-08-30T06:51:36;20.60;99.90
11142;DHT22;5625;50.122;19.864;2023-08-30T06:54:04;20.60;99.90
11142;DHT22;5625;50.122;19.864;2023-08-30T06:56:34;20.70;99.90
11142;DHT22;5625;50.122;19.864;2023-08-30T06:59:02;20.70;99.90
11142;DHT22;5625;50.122;19.864;2023-08-30T07:01:30;20.80;99.90
11142;DHT22;5625;50.122;19.864;2023-08-30T07:04:03;20.80;99.90
11142;DHT22;5625;50.122;19.864;2023-08-30T07:06:32;20.90;99.90
11142;DHT22;5625;50.122;19.864;2023-08-30T07:09:00;20.90;99.90
11142;DHT22;5625;50.122;19.864;2023-08-30T07:11:30;20.80;99.90
11142;DHT22;5625;50.122;19.864;2023-08-30T07:14:00;20.90;99.90
11142;DHT22;5625;50.122;19.864;2023-08-30T07:16:28;20.80;99.90
11142;DHT22;5625;50.122;19.864;2023-08-30T07:18:58;20.80;99.90
11142;DHT22;5625;50.122;19.864;2023-08-30T07:21:30;20.80;99.90
11142;DHT22;5625;50.122;19.864;2023-08-30T07:23:58;20.80;99.90
11142;DHT22;5625;50.122;19.864;2023-08-30T07:26:26;20.80;99.90
11142;DHT22;5625;50.122;19.864;2023-08-30T07:28:54;20.90;99.90
11142;DHT22;5625;50.122;19.864;2023-08-30T07:31:22;20.90;99.90
11142;DHT22;5625;50.122;19.864;2023-08-30T07:33:51;20.80;99.90
11142;DHT22;5625;50.122;19.864;2023-08-30T07:36:19;20.80;99.90
11142;DHT22;5625;50.122;19.864;2023-08-30T07:38:57;20.80;99.90
11142;DHT22;5625;50.122;19.864;2023-08-30T07:41:27;20.80;99.90
11142;DHT22;5625;50.122;19.864;2023-08-30T07:43:55;20.80;99.90
11142;DHT22;5625;50.122;19.864;2023-08-30T07:46:23;20.80;99.90
11142;DHT22;5625;50.122;19.864;2023-08-30T07:48:52;20.80;99.90
11142;DHT22;5625;50.122;19.864;2023-08-30T07:51:20;20.80;99.90
11142;DHT22;5625;50.122;19.864;2023-08-30T07:53:49;20.80;99.90
11142;DHT22;5625;50.122;19.864;2023-08-30T07:56:18;20.80;99.90
11142;DHT22;5625;50.122;19.864;2023-08-30T07:58:46;20.80;99.90
11142;DHT22;5625;50.122;19.864;2023-08-30T08:01:14;20.80;99.90
11142;DHT22;5625;50.122;19.864;2023-08-30T08:03:46;20.70;99.90
11142;DHT22;5625;50.122;19.864;2023-08-30T08:06:32;20.70;99.90
11142;DHT22;5625;50.122;19.864;2023-08-30T08:09:00;20.70;99.90
11142;DHT22;5625;50.122;19.864;2023-08-30T08:11:30;20.70;99.90
11142;DHT22;5625;50.122;19.864;2023-08-30T08:13:59;20.70;99.90
11142;DHT22;5625;50.122;19.864;2023-08-30T08:16:28;20.70;99.90
11142;DHT22;5625;50.122;19.864;2023-08-30T08:18:56;20.70;99.90
11142;DHT22;5625;50.122;19.864;2023-08-30T08:21:26;20.70;99.90
11142;DHT22;5625;50.122;19.864;2023-08-30T08:23:54;20.70;99.90
11142;DHT22;5625;50.122;19.864;2023-08-30T08:26:22;20.80;99.90
11142;DHT22;5625;50.122;19.864;2023-08-30T08:28:53;20.80;99.90
11142;DHT22;5625;50.122;19.864;2023-08-30T08:31:21;20.80;99.90
11142;DHT22;5625;50.122;19.864;2023-08-30T08:33:51;20.90;99.90
11142;DHT22;5625;50.122;19.864;2023-08-30T08:36:32;21.00;99.90
11142;DHT22;5625;50.122;19.864;2023-08-30T08:39:00;21.10;99.90
11142;DHT22;5625;50.122;19.864;2023-08-30T08:41:37;21.20;99.90
11142;DHT22;5625;50.122;19.864;2023-08-30T08:44:08;21.30;99.90
11142;DHT22;5625;50.122;19.864;2023-08-30T08:46:37;21.40;99.90
11142;DHT22;5625;50.122;19.864;2023-08-30T08:49:08;21.40;99.90
11142;DHT22;5625;50.122;19.864;2023-08-30T08:51:37;21.50;99.90
11142;DHT22;5625;50.122;19.864;2023-08-30T08:54:06;21.50;99.90
11142;DHT22;5625;50.122;19.864;2023-08-30T08:56:36;21.60;99.90
11142;DHT22;5625;50.122;19.864;2023-08-30T08:59:04;21.70;99.90
11142;DHT22;5625;50.122;19.864;2023-08-30T09:01:36;21.70;99.90
11142;DHT22;5625;50.122;19.864;2023-08-30T09:04:07;21.70;99.90
11142;DHT22;5625;50.122;19.864;2023-08-30T09:06:36;21.70;99.90
11142;DHT22;5625;50.122;19.864;2023-08-30T09:09:05;21.60;99.90
11142;DHT22;5625;50.122;19.864;2023-08-30T09:11:35;21.60;99.90
11142;DHT22;5625;50.122;19.864;2023-08-30T09:14:17;21.60;99.90
11142;DHT22;5625;50.122;19.864;2023-08-30T09:16:55;21.60;99.90
11142;DHT22;5625;50.122;19.864;2023-08-30T09:19:24;21.60;99.90
11142;DHT22;5625;50.122;19.864;2023-08-30T09:21:52;21.70;99.90
11142;DHT22;5625;50.122;19.864;2023-08-30T09:24:21;21.60;99.90
11142;DHT22;5625;50.122;19.864;2023-08-30T09:26:52;21.70;99.90
11142;DHT22;5625;50.122;19.864;2023-08-30T09:29:21;21.70;99.90
11142;DHT22;5625;50.122;19.864;2023-08-30T09:31:52;21.70;99.90
11142;DHT22;5625;50.122;19.864;2023-08-30T09:34:24;21.80;99.90
11142;DHT22;5625;50.122;19.864;2023-08-30T09:36:53;21.80;99.90
11142;DHT22;5625;50.122;19.864;2023-08-30T09:39:22;21.90;99.90
11142;DHT22;5625;50.122;19.864;2023-08-30T09:41:50;22.00;99.90
11142;DHT22;5625;50.122;19.864;2023-08-30T09:44:20;22.10;99.90
11142;DHT22;5625;50.122;19.864;2023-08-30T09:46:52;22.20;99.90
11142;DHT22;5625;50.122;19.864;2023-08-30T09:49:21;22.30;99.90
11142;DHT22;5625;50.122;19.864;2023-08-30T09:51:52;22.50;99.90
11142;DHT22;5625;50.122;19.864;2023-08-30T09:54:22;22.70;99.90
11142;DHT22;5625;50.122;19.864;2023-08-30T09:56:54;23.00;99.90
11142;DHT22;5625;50.122;19.864;2023-08-30T09:59:25;23.20;99.90
11142;DHT22;5625;50.122;19.864;2023-08-30T10:01:54;23.40;99.90
11142;DHT22;5625;50.122;19.864;2023-08-30T10:04:23;23.60;99.90
11142;DHT22;5625;50.122;19.864;2023-08-30T10:06:56;24.10;99.90
11142;DHT22;5625;50.122;19.864;2023-08-30T10:09:25;24.20;99.90
11142;DHT22;5625;50.122;19.864;2023-08-30T10:11:54;24.20;99.90
11142;DHT22;5625;50.122;19.864;2023-08-30T10:14:22;24.20;99.90
11142;DHT22;5625;50.122;19.864;2023-08-30T10:16:53;24.00;99.90
11142;DHT22;5625;50.122;19.864;2023-08-30T10:19:27;23.90;99.90
11142;DHT22;5625;50.122;19.864;2023-08-30T10:22:00;23.90;99.90
11142;DHT22;5625;50.122;19.864;2023-08-30T10:24:32;23.80;99.90
11142;DHT22;5625;50.122;19.864;2023-08-30T10:27:24;23.80;99.90
11142;DHT22;5625;50.122;19.864;2023-08-30T10:29:53;23.80;99.90
11142;DHT22;5625;50.122;19.864;2023-08-30T10:32:22;23.70;99.90
11142;DHT22;5625;50.122;19.864;2023-08-30T10:34:51;23.70;99.90
11142;DHT22;5625;50.122;19.864;2023-08-30T10:37:25;23.60;99.90
11142;DHT22;5625;50.122;19.864;2023-08-30T10:39:59;23.70;99.90
11142;DHT22;5625;50.122;19.864;2023-08-30T10:42:29;23.80;99.90
11142;DHT22;5625;50.122;19.864;2023-08-30T10:44:59;23.90;99.90
11142;DHT22;5625;50.122;19.864;2023-08-30T10:47:40;24.00;99.90
11142;DHT22;5625;50.122;19.864;2023-08-30T10:50:10;23.90;99.90
11142;DHT22;5625;50.122;19.864;2023-08-30T10:52:40;23.90;99.90
11142;DHT22;5625;50.122;19.864;2023-08-30T10:55:09;23.80;99.90
11142;DHT22;5625;50.122;19.864;2023-08-30T10:57:42;23.80;99.90
11142;DHT22;5625;50.122;19.864;2023-08-30T11:00:12;23.90;99.90
11142;DHT22;5625;50.122;19.864;2023-08-30T11:02:48;23.90;99.90
11142;DHT22;5625;50.122;19.864;2023-08-30T11:05:17;24.00;99.90
11142;DHT22;5625;50.122;19.864;2023-08-30T11:07:47;24.10;99.90
11142;DHT22;5625;50.122;19.864;2023-08-30T11:10:17;24.20;99.90
11142;DHT22;5625;50.122;19.864;2023-08-30T11:12:47;24.30;99.90
11142;DHT22;5625;50.122;19.864;2023-08-30T11:15:16;24.30;99.90
11142;DHT22;5625;50.122;19.864;2023-08-30T11:17:45;24.20;99.90
11142;DHT22;5625;50.122;19.864;2023-08-30T11:20:15;24.30;99.90
11142;DHT22;5625;50.122;19.864;2023-08-30T11:22:48;24.40;99.90
11142;DHT22;5625;50.122;19.864;2023-08-30T11:25:17;24.50;99.90
11142;DHT22;5625;50.122;19.864;2023-08-30T11:27:45;24.60;99.90
11142;DHT22;5625;50.122;19.864;2023-08-30T11:30:14;24.70;99.90
11142;DHT22;5625;50.122;19.864;2023-08-30T11:32:42;24.70;99.90
11142;DHT22;5625;50.122;19.864;2023-08-30T11:35:11;24.80;99.90
11142;DHT22;5625;50.122;19.864;2023-08-30T11:37:40;24.80;99.90
11142;DHT22;5625;50.122;19.864;2023-08-30T11:40:11;24.80;99.90
11142;DHT22;5625;50.122;19.864;2023-08-30T11:42:39;24.80;99.90
11142;DHT22;5625;50.122;19.864;2023-08-30T11:45:09;24.90;99.90
11142;DHT22;5625;50.122;19.864;2023-08-30T11:47:38;25.00;99.90
11142;DHT22;5625;50.122;19.864;2023-08-30T11:50:09;25.10;99.90
11142;DHT22;5625;50.122;19.864;2023-08-30T11:52:39;25.10;99.90
11142;DHT22;5625;50.122;19.864;2023-08-30T11:55:09;25.00;99.90
11142;DHT22;5625;50.122;19.864;2023-08-30T11:57:39;24.90;99.90
11142;DHT22;5625;50.122;19.864;2023-08-30T12:00:08;24.90;99.90
11142;DHT22;5625;50.122;19.864;2023-08-30T12:02:37;24.80;99.90
11142;DHT22;5625;50.122;19.864;2023-08-30T12:05:05;24.80;99.90
11142;DHT22;5625;50.122;19.864;2023-08-30T12:07:37;24.90;99.90
11142;DHT22;5625;50.122;19.864;2023-08-30T12:10:10;24.80;99.90
11142;DHT22;5625;50.122;19.864;2023-08-30T12:12:44;24.70;99.90
11142;DHT22;5625;50.122;19.864;2023-08-30T12:15:14;24.60;99.90
11142;DHT22;5625;50.122;19.864;2023-08-30T12:17:43;24.50;99.90
11142;DHT22;5625;50.122;19.864;2023-08-30T12:20:15;24.40;99.90
11142;DHT22;5625;50.122;19.864;2023-08-30T12:22:44;24.30;99.90
11142;DHT22;5625;50.122;19.864;2023-08-30T12:25:17;24.20;99.90
11142;DHT22;5625;50.122;19.864;2023-08-30T12:27:46;24.10;99.90
11142;DHT22;5625;50.122;19.864;2023-08-30T12:30:15;24.00;99.90
11142;DHT22;5625;50.122;19.864;2023-08-30T12:32:44;23.90;99.90
11142;DHT22;5625;50.122;19.864;2023-08-30T12:35:12;23.80;99.90
11142;DHT22;5625;50.122;19.864;2023-08-30T12:37:41;23.60;99.90
11142;DHT22;5625;50.122;19.864;2023-08-30T12:40:10;23.50;99.90
11142;DHT22;5625;50.122;19.864;2023-08-30T12:42:39;23.40;99.90
11142;DHT22;5625;50.122;19.864;2023-08-30T12:45:08;23.20;99.90
11142;DHT22;5625;50.122;19.864;2023-08-30T12:47:37;23.10;99.90
11142;DHT22;5625;50.122;19.864;2023-08-30T12:50:06;23.10;99.90
11142;DHT22;5625;50.122;19.864;2023-08-30T12:52:34;22.90;99.90
11142;DHT22;5625;50.122;19.864;2023-08-30T12:55:02;22.90;99.90
11142;DHT22;5625;50.122;19.864;2023-08-30T12:57:30;22.90;99.90
11142;DHT22;5625;50.122;19.864;2023-08-30T13:00:00;22.90;99.90
11142;DHT22;5625;50.122;19.864;2023-08-30T13:02:29;22.80;99.90
11142;DHT22;5625;50.122;19.864;2023-08-30T13:04:57;22.80;99.90
11142;DHT22;5625;50.122;19.864;2023-08-30T13:07:25;22.80;99.90
11142;DHT22;5625;50.122;19.864;2023-08-30T13:09:53;22.90;99.90
11142;DHT22;5625;50.122;19.864;2023-08-30T13:12:22;22.90;99.90
11142;DHT22;5625;50.122;19.864;2023-08-30T13:14:51;22.90;99.90
11142;DHT22;5625;50.122;19.864;2023-08-30T13:17:21;22.90;99.90
11142;DHT22;5625;50.122;19.864;2023-08-30T13:19:51;22.80;99.90
11142;DHT22;5625;50.122;19.864;2023-08-30T13:22:19;22.80;99.90
11142;DHT22;5625;50.122;19.864;2023-08-30T13:24:47;22.70;99.90
11142;DHT22;5625;50.122;19.864;2023-08-30T13:27:16;22.70;99.90
11142;DHT22;5625;50.122;19.864;2023-08-30T13:29:44;22.70;99.90
11142;DHT22;5625;50.122;19.864;2023-08-30T13:32:12;22.70;99.90
11142;DHT22;5625;50.122;19.864;2023-08-30T13:34:41;22.60;99.90
11142;DHT22;5625;50.122;19.864;2023-08-30T13:37:12;22.60;99.90
11142;DHT22;5625;50.122;19.864;2023-08-30T13:39:41;22.70;99.90
11142;DHT22;5625;50.122;19.864;2023-08-30T13:42:09;22.60;99.90
11142;DHT22;5625;50.122;19.864;2023-08-30T13:44:37;22.70;99.90
11142;DHT22;5625;50.122;19.864;2023-08-30T13:47:06;22.70;99.90
11142;DHT22;5625;50.122;19.864;2023-08-30T13:49:35;22.70;99.90
11142;DHT22;5625;50.122;19.864;2023-08-30T13:52:05;22.70;99.90
11142;DHT22;5625;50.122;19.864;2023-08-30T13:54:34;22.60;99.90
11142;DHT22;5625;50.122;19.864;2023-08-30T13:57:02;22.50;99.90
11142;DHT22;5625;50.122;19.864;2023-08-30T13:59:30;22.50;99.90
11142;DHT22;5625;50.122;19.864;2023-08-30T14:01:58;22.50;99.90
11142;DHT22;5625;50.122;19.864;2023-08-30T14:04:26;22.50;99.90
11142;DHT22;5625;50.122;19.864;2023-08-30T14:06:56;22.40;99.90
11142;DHT22;5625;50.122;19.864;2023-08-30T14:09:26;22.50;99.90
11142;DHT22;5625;50.122;19.864;2023-08-30T14:11:56;22.30;99.90
11142;DHT22;5625;50.122;19.864;2023-08-30T14:14:24;22.40;99.90
11142;DHT22;5625;50.122;19.864;2023-08-30T14:16:52;22.30;99.90
11142;DHT22;5625;50.122;19.864;2023-08-30T14:19:21;22.20;99.90
11142;DHT22;5625;50.122;19.864;2023-08-30T14:21:49;22.20;99.90
11142;DHT22;5625;50.122;19.864;2023-08-30T14:24:21;22.20;99.90
11142;DHT22;5625;50.122;19.864;2023-08-30T14:26:50;22.20;99.90
11142;DHT22;5625;50.122;19.864;2023-08-30T14:29:20;22.20;99.90
11142;DHT22;5625;50.122;19.864;2023-08-30T14:31:49;22.20;99.90
11142;DHT22;5625;50.122;19.864;2023-08-30T14:34:20;22.20;99.90
11142;DHT22;5625;50.122;19.864;2023-08-30T14:36:48;22.30;99.90
11142;DHT22;5625;50.122;19.864;2023-08-30T14:39:16;22.30;99.90
11142;DHT22;5625;50.122;19.864;2023-08-30T14:41:45;22.40;99.90
11142;DHT22;5625;50.122;19.864;2023-08-30T14:44:14;22.40;99.90
11142;DHT22;5625;50.122;19.864;2023-08-30T14:46:42;22.40;99.90
11142;DHT22;5625;50.122;19.864;2023-08-30T14:49:11;22.40;99.90
11142;DHT22;5625;50.122;19.864;2023-08-30T14:51:39;22.40;99.90
11142;DHT22;5625;50.122;19.864;2023-08-30T14:54:07;22.50;99.90
11142;DHT22;5625;50.122;19.864;2023-08-30T14:56:35;22.50;99.90
11142;DHT22;5625;50.122;19.864;2023-08-30T14:59:03;22.70;99.90
11142;DHT22;5625;50.122;19.864;2023-08-30T15:01:34;22.70;99.90
11142;DHT22;5625;50.122;19.864;2023-08-30T15:04:03;22.70;99.90
11142;DHT22;5625;50.122;19.864;2023-08-30T15:06:31;22.70;99.90
11142;DHT22;5625;50.122;19.864;2023-08-30T15:09:00;22.60;99.90
11142;DHT22;5625;50.122;19.864;2023-08-30T15:11:30;22.60;99.90
11142;DHT22;5625;50.122;19.864;2023-08-30T15:13:58;22.60;99.90
11142;DHT22;5625;50.122;19.864;2023-08-30T15:16:26;22.50;99.90
11142;DHT22;5625;50.122;19.864;2023-08-30T15:18:55;22.50;99.90
11142;DHT22;5625;50.122;19.864;2023-08-30T15:21:23;22.50;99.90
11142;DHT22;5625;50.122;19.864;2023-08-30T15:23:52;22.50;99.90
11142;DHT22;5625;50.122;19.864;2023-08-30T15:26:20;22.40;99.90
11142;DHT22;5625;50.122;19.864;2023-08-30T15:28:48;22.30;99.90
11142;DHT22;5625;50.122;19.864;2023-08-30T15:31:17;22.20;99.90
11142;DHT22;5625;50.122;19.864;2023-08-30T15:33:45;22.30;99.90
11142;DHT22;5625;50.122;19.864;2023-08-30T15:36:16;22.20;99.90
11142;DHT22;5625;50.122;19.864;2023-08-30T15:38:44;22.00;99.90
11142;DHT22;5625;50.122;19.864;2023-08-30T15:41:13;21.90;99.90
11142;DHT22;5625;50.122;19.864;2023-08-30T15:43:42;21.90;99.90